sensor_id;sensor_type;location;lat;lon;timestamp;temperature;humidity
17333;DHT22;8784;50.94667800;7.08448400;2022-08-19T00:01:15;20.90;95.20
17333;DHT22;8784;50.94667800;7.08448400;2022-08-19T00:03:42;20.90;95.20
17333;DHT22;8784;50.94667800;7.08448400;2022-08-19T00:06:09;20.90;95.30
17333;DHT22;8784;50.94667800;7.08448400;2022-08-19T00:08:36;20.90;95.30
17333;DHT22;8784;50.94667800;7.08448400;2022-08-19T00:11:03;20.80;95.40
17333;DHT22;8784;50.94667800;7.08448400;2022-08-19T00:13:31;20.80;95.50
17333;DHT22;8784;50.94667800;7.08448400;2022-08-19T00:15:58;20.70;95.60
17333;DHT22;8784;50.94667800;7.08448400;2022-08-19T00:18:26;20.70;95.90
17333;DHT22;8784;50.94667800;7.08448400;2022-08-19T00:20:53;20.70;96.10
17333;DHT22;8784;50.94667800;7.08448400;2022-08-19T00:23:20;20.70;96.20
17333;DHT22;8784;50.94667800;7.08448400;2022-08-19T00:25:47;20.80;96.30
17333;DHT22;8784;50.94667800;7.08448400;2022-08-19T00:28:14;20.80;96.30
17333;DHT22;8784;50.94667800;7.08448400;2022-08-19T00:30:42;20.60;96.30
17333;DHT22;8784;50.94667800;7.08448400;2022-08-19T00:33:09;20.60;96.70
17333;DHT22;8784;50.94667800;7.08448400;2022-08-19T00:35:36;20.60;96.80
17333;DHT22;8784;50.94667800;7.08448400;2022-08-19T00:38:04;20.70;97.10
17333;DHT22;8784;50.94667800;7.08448400;2022-08-19T00:40:32;20.70;96.80
17333;DHT22;8784;50.94667800;7.08448400;2022-08-19T00:42:59;20.60;96.80
17333;DHT22;8784;50.94667800;7.08448400;2022-08-19T00:45:28;20.60;97.00
17333;DHT22;8784;50.94667800;7.08448400;2022-08-19T00:47:59;20.70;97.00
17333;DHT22;8784;50.94667800;7.08448400;2022-08-19T00:50:29;20.80;97.10
17333;DHT22;8784;50.94667800;7.08448400;2022-08-19T00:52:57;20.80;97.00
17333;DHT22;8784;50.94667800;7.08448400;2022-08-19T00:55:26;20.80;96.90
17333;DHT22;8784;50.94667800;7.08448400;2022-08-19T00:57:56;20.90;96.90
17333;DHT22;8784;50.94667800;7.08448400;2022-08-19T01:00:26;20.70;96.70
17333;DHT22;8784;50.94667800;7.08448400;2022-08-19T01:02:54;20.50;97.10
17333;DHT22;8784;50.94667800;7.08448400;2022-08-19T01:05:25;20.30;97.30
17333;DHT22;8784;50.94667800;7.08448400;2022-08-19T01:07:55;20.20;97.80
17333;DHT22;8784;50.94667800;7.08448400;2022-08-19T01:10:26;20.10;97.70
17333;DHT22;8784;50.94667800;7.08448400;2022-08-19T01:12:54;20.10;98.00
17333;DHT22;8784;50.94667800;7.08448400;2022-08-19T01:15:25;20.10;97.90
17333;DHT22;8784;50.94667800;7.08448400;2022-08-19T01:17:54;20.00;97.90
17333;DHT22;8784;50.94667800;7.08448400;2022-08-19T01:20:24;19.90;98.00
17333;DHT22;8784;50.94667800;7.08448400;2022-08-19T01:22:55;19.90;98.10
17333;DHT22;8784;50.94667800;7.08448400;2022-08-19T01:25:24;19.80;98.00
17333;DHT22;8784;50.94667800;7.08448400;2022-08-19T01:27:53;19.90;98.00
17333;DHT22;8784;50.94667800;7.08448400;2022-08-19T01:30:23;19.80;97.90
17333;DHT22;8784;50.94667800;7.08448400;2022-08-19T01:32:52;19.80;97.90
17333;DHT22;8784;50.94667800;7.08448400;2022-08-19T01:35:20;19.80;97.90
17333;DHT22;8784;50.94667800;7.08448400;2022-08-19T01:37:52;19.70;98.10
17333;DHT22;8784;50.94667800;7.08448400;2022-08-19T01:40:22;19.50;98.30
17333;DHT22;8784;50.94667800;7.08448400;2022-08-19T01:42:51;19.50;98.50
17333;DHT22;8784;50.94667800;7.08448400;2022-08-19T01:45:19;19.50;98.60
17333;DHT22;8784;50.94667800;7.08448400;2022-08-19T01:47:47;19.50;98.60
17333;DHT22;8784;50.94667800;7.08448400;2022-08-19T01:50:14;19.50;98.50
17333;DHT22;8784;50.94667800;7.08448400;2022-08-19T01:52:43;19.60;98.60
17333;DHT22;8784;50.94667800;7.08448400;2022-08-19T01:55:14;19.60;98.60
17333;DHT22;8784;50.94667800;7.08448400;2022-08-19T01:57:46;19.60;98.60
17333;DHT22;8784;50.94667800;7.08448400;2022-08-19T02:00:17;19.60;98.50
17333;DHT22;8784;50.94667800;7.08448400;2022-08-19T02:02:44;19.50;98.50
17333;DHT22;8784;50.94667800;7.08448400;2022-08-19T02:05:12;19.50;98.60
17333;DHT22;8784;50.94667800;7.08448400;2022-08-19T02:07:39;19.50;98.70
17333;DHT22;8784;50.94667800;7.08448400;2022-08-19T02:10:09;19.50;98.60
17333;DHT22;8784;50.94667800;7.08448400;2022-08-19T02:12:38;19.50;98.60
17333;DHT22;8784;50.94667800;7.08448400;2022-08-19T02:15:05;19.40;98.60
17333;DHT22;8784;50.94667800;7.08448400;2022-08-19T02:17:33;19.40;98.90
17333;DHT22;8784;50.94667800;7.08448400;2022-08-19T02:20:00;19.40;99.10
17333;DHT22;8784;50.94667800;7.08448400;2022-08-19T02:22:27;19.50;99.10
17333;DHT22;8784;50.94667800;7.08448400;2022-08-19T02:24:55;19.50;99.20
17333;DHT22;8784;50.94667800;7.08448400;2022-08-19T02:27:22;19.50;99.30
17333;DHT22;8784;50.94667800;7.08448400;2022-08-19T02:29:51;19.70;99.30
17333;DHT22;8784;50.94667800;7.08448400;2022-08-19T02:32:19;19.80;99.20
17333;DHT22;8784;50.94667800;7.08448400;2022-08-19T02:34:47;19.90;99.10
17333;DHT22;8784;50.94667800;7.08448400;2022-08-19T02:37:14;19.90;98.90
17333;DHT22;8784;50.94667800;7.08448400;2022-08-19T02:39:55;20.00;98.80
17333;DHT22;8784;50.94667800;7.08448400;2022-08-19T02:42:23;20.10;98.80
17333;DHT22;8784;50.94667800;7.08448400;2022-08-19T02:44:51;20.10;98.70
17333;DHT22;8784;50.94667800;7.08448400;2022-08-19T02:47:19;20.10;98.70
17333;DHT22;8784;50.94667800;7.08448400;2022-08-19T02:49:46;20.20;98.70
17333;DHT22;8784;50.94667800;7.08448400;2022-08-19T02:52:15;20.20;98.80
17333;DHT22;8784;50.94667800;7.08448400;2022-08-19T02:54:42;20.20;98.70
17333;DHT22;8784;50.94667800;7.08448400;2022-08-19T02:57:10;20.30;98.60
17333;DHT22;8784;50.94667800;7.08448400;2022-08-19T02:59:37;20.30;98.60
17333;DHT22;8784;50.94667800;7.08448400;2022-08-19T03:02:06;20.30;98.60
17333;DHT22;8784;50.94667800;7.08448400;2022-08-19T03:04:33;20.30;98.50
17333;DHT22;8784;50.94667800;7.08448400;2022-08-19T03:07:00;20.20;98.40
17333;DHT22;8784;50.94667800;7.08448400;2022-08-19T03:09:27;20.00;98.70
17333;DHT22;8784;50.94667800;7.08448400;2022-08-19T03:11:55;19.90;98.90
17333;DHT22;8784;50.94667800;7.08448400;2022-08-19T03:14:22;20.00;99.00
17333;DHT22;8784;50.94667800;7.08448400;2022-08-19T03:16:51;20.00;98.60
17333;DHT22;8784;50.94667800;7.08448400;2022-08-19T03:19:20;19.90;98.50
17333;DHT22;8784;50.94667800;7.08448400;2022-08-19T03:21:47;19.80;98.50
17333;DHT22;8784;50.94667800;7.08448400;2022-08-19T03:24:15;19.70;98.60
17333;DHT22;8784;50.94667800;7.08448400;2022-08-19T03:26:47;19.70;98.60
17333;DHT22;8784;50.94667800;7.08448400;2022-08-19T03:29:15;19.40;98.90
17333;DHT22;8784;50.94667800;7.08448400;2022-08-19T03:31:43;19.30;99.10
17333;DHT22;8784;50.94667800;7.08448400;2022-08-19T03:34:11;19.20;99.30
17333;DHT22;8784;50.94667800;7.08448400;2022-08-19T03:36:40;19.10;99.40
17333;DHT22;8784;50.94667800;7.08448400;2022-08-19T03:39:07;19.00;99.60
17333;DHT22;8784;50.94667800;7.08448400;2022-08-19T03:41:37;19.00;99.60
17333;DHT22;8784;50.94667800;7.08448400;2022-08-19T03:44:05;19.00;99.60
17333;DHT22;8784;50.94667800;7.08448400;2022-08-19T03:46:33;19.00;99.50
17333;DHT22;8784;50.94667800;7.08448400;2022-08-19T03:49:02;19.00;99.50
17333;DHT22;8784;50.94667800;7.08448400;2022-08-19T03:51:37;19.00;99.50
17333;DHT22;8784;50.94667800;7.08448400;2022-08-19T03:54:10;19.00;99.50
17333;DHT22;8784;50.94667800;7.08448400;2022-08-19T03:56:38;19.00;99.50
17333;DHT22;8784;50.94667800;7.08448400;2022-08-19T03:59:07;18.90;99.50
17333;DHT22;8784;50.94667800;7.08448400;2022-08-19T04:01:34;18.90;99.50
17333;DHT22;8784;50.94667800;7.08448400;2022-08-19T04:04:02;18.90;99.50
17333;DHT22;8784;50.94667800;7.08448400;2022-08-19T04:06:32;18.90;99.60
17333;DHT22;8784;50.94667800;7.08448400;2022-08-19T04:09:01;18.90;99.70
17333;DHT22;8784;50.94667800;7.08448400;2022-08-19T04:11:34;18.80;99.60
17333;DHT22;8784;50.94667800;7.08448400;2022-08-19T04:14:01;18.80;99.60
17333;DHT22;8784;50.94667800;7.08448400;2022-08-19T04:16:29;18.80;99.70
17333;DHT22;8784;50.94667800;7.08448400;2022-08-19T04:18:56;18.80;99.90
17333;DHT22;8784;50.94667800;7.08448400;2022-08-19T04:21:25;18.90;99.90
17333;DHT22;8784;50.94667800;7.08448400;2022-08-19T04:23:54;18.90;99.90
17333;DHT22;8784;50.94667800;7.08448400;2022-08-19T04:26:23;19.00;99.90
17333;DHT22;8784;50.94667800;7.08448400;2022-08-19T04:28:52;19.10;99.90
17333;DHT22;8784;50.94667800;7.08448400;2022-08-19T04:31:22;19.20;99.90
17333;DHT22;8784;50.94667800;7.08448400;2022-08-19T04:33:51;19.30;99.90
17333;DHT22;8784;50.94667800;7.08448400;2022-08-19T04:36:19;19.40;99.90
17333;DHT22;8784;50.94667800;7.08448400;2022-08-19T04:38:47;19.30;99.70
17333;DHT22;8784;50.94667800;7.08448400;2022-08-19T04:41:14;19.20;99.90
17333;DHT22;8784;50.94667800;7.08448400;2022-08-19T04:44:00;19.20;99.90
17333;DHT22;8784;50.94667800;7.08448400;2022-08-19T04:46:28;19.30;99.90
17333;DHT22;8784;50.94667800;7.08448400;2022-08-19T04:48:57;19.40;99.90
17333;DHT22;8784;50.94667800;7.08448400;2022-08-19T04:51:25;19.50;99.90
17333;DHT22;8784;50.94667800;7.08448400;2022-08-19T04:53:53;19.60;99.90
17333;DHT22;8784;50.94667800;7.08448400;2022-08-19T04:56:20;19.70;99.90
17333;DHT22;8784;50.94667800;7.08448400;2022-08-19T04:58:49;19.80;99.90
17333;DHT22;8784;50.94667800;7.08448400;2022-08-19T05:01:21;19.90;99.80
17333;DHT22;8784;50.94667800;7.08448400;2022-08-19T05:03:48;20.00;99.70
17333;DHT22;8784;50.94667800;7.08448400;2022-08-19T05:06:17;20.00;99.60
17333;DHT22;8784;50.94667800;7.08448400;2022-08-19T05:08:45;20.10;99.60
17333;DHT22;8784;50.94667800;7.08448400;2022-08-19T05:11:15;20.10;99.50
17333;DHT22;8784;50.94667800;7.08448400;2022-08-19T05:13:43;20.20;99.50
17333;DHT22;8784;50.94667800;7.08448400;2022-08-19T05:16:12;20.20;99.30
17333;DHT22;8784;50.94667800;7.08448400;2022-08-19T05:18:41;20.10;99.10
17333;DHT22;8784;50.94667800;7.08448400;2022-08-19T05:21:26;20.00;99.10
17333;DHT22;8784;50.94667800;7.08448400;2022-08-19T05:24:12;19.90;99.10
17333;DHT22;8784;50.94667800;7.08448400;2022-08-19T05:26:44;19.80;99.30
17333;DHT22;8784;50.94667800;7.08448400;2022-08-19T05:29:13;19.70;99.60
17333;DHT22;8784;50.94667800;7.08448400;2022-08-19T05:31:40;19.60;99.80
17333;DHT22;8784;50.94667800;7.08448400;2022-08-19T05:34:09;19.50;99.90
17333;DHT22;8784;50.94667800;7.08448400;2022-08-19T05:36:39;19.50;99.90
17333;DHT22;8784;50.94667800;7.08448400;2022-08-19T05:39:07;19.50;99.90
17333;DHT22;8784;50.94667800;7.08448400;2022-08-19T05:41:35;19.40;99.90
17333;DHT22;8784;50.94667800;7.08448400;2022-08-19T05:44:04;19.40;99.90
17333;DHT22;8784;50.94667800;7.08448400;2022-08-19T05:46:35;19.40;99.90
17333;DHT22;8784;50.94667800;7.08448400;2022-08-19T05:49:02;19.40;99.90
17333;DHT22;8784;50.94667800;7.08448400;2022-08-19T05:51:34;19.40;99.90
17333;DHT22;8784;50.94667800;7.08448400;2022-08-19T05:54:03;19.40;99.90
17333;DHT22;8784;50.94667800;7.08448400;2022-08-19T05:56:31;19.40;99.90
17333;DHT22;8784;50.94667800;7.08448400;2022-08-19T05:58:58;19.50;99.90
17333;DHT22;8784;50.94667800;7.08448400;2022-08-19T06:01:26;19.50;99.90
17333;DHT22;8784;50.94667800;7.08448400;2022-08-19T06:03:53;19.60;99.90
17333;DHT22;8784;50.94667800;7.08448400;2022-08-19T06:06:20;19.60;99.90
17333;DHT22;8784;50.94667800;7.08448400;2022-08-19T06:08:49;19.70;99.90
17333;DHT22;8784;50.94667800;7.08448400;2022-08-19T06:11:20;19.70;99.90
17333;DHT22;8784;50.94667800;7.08448400;2022-08-19T06:13:48;19.70;99.90
17333;DHT22;8784;50.94667800;7.08448400;2022-08-19T06:16:18;19.80;99.90
17333;DHT22;8784;50.94667800;7.08448400;2022-08-19T06:18:48;19.90;99.90
17333;DHT22;8784;50.94667800;7.08448400;2022-08-19T06:21:17;20.00;99.90
17333;DHT22;8784;50.94667800;7.08448400;2022-08-19T06:23:44;20.20;99.90
17333;DHT22;8784;50.94667800;7.08448400;2022-08-19T06:26:15;20.40;99.90
17333;DHT22;8784;50.94667800;7.08448400;2022-08-19T06:28:42;20.60;99.90
17333;DHT22;8784;50.94667800;7.08448400;2022-08-19T06:31:12;20.70;99.90
17333;DHT22;8784;50.94667800;7.08448400;2022-08-19T06:33:39;20.90;99.90
17333;DHT22;8784;50.94667800;7.08448400;2022-08-19T06:36:07;21.10;99.90
17333;DHT22;8784;50.94667800;7.08448400;2022-08-19T06:38:34;21.20;99.80
17333;DHT22;8784;50.94667800;7.08448400;2022-08-19T06:41:02;21.40;99.80
17333;DHT22;8784;50.94667800;7.08448400;2022-08-19T06:43:31;21.70;99.80
17333;DHT22;8784;50.94667800;7.08448400;2022-08-19T06:45:58;22.00;99.70
17333;DHT22;8784;50.94667800;7.08448400;2022-08-19T06:48:29;22.40;99.90
17333;DHT22;8784;50.94667800;7.08448400;2022-08-19T06:50:56;22.80;99.40
17333;DHT22;8784;50.94667800;7.08448400;2022-08-19T06:53:23;23.10;99.10
17333;DHT22;8784;50.94667800;7.08448400;2022-08-19T06:55:50;23.40;98.80
17333;DHT22;8784;50.94667800;7.08448400;2022-08-19T06:58:26;23.50;98.70
17333;DHT22;8784;50.94667800;7.08448400;2022-08-19T07:00:54;23.80;98.90
17333;DHT22;8784;50.94667800;7.08448400;2022-08-19T07:03:23;24.20;98.40
17333;DHT22;8784;50.94667800;7.08448400;2022-08-19T07:05:49;24.60;98.20
17333;DHT22;8784;50.94667800;7.08448400;2022-08-19T07:08:16;25.00;97.80
17333;DHT22;8784;50.94667800;7.08448400;2022-08-19T07:10:44;25.30;97.40
17333;DHT22;8784;50.94667800;7.08448400;2022-08-19T07:13:11;25.40;97.30
17333;DHT22;8784;50.94667800;7.08448400;2022-08-19T07:15:38;25.70;97.10
17333;DHT22;8784;50.94667800;7.08448400;2022-08-19T07:18:06;26.00;96.80
17333;DHT22;8784;50.94667800;7.08448400;2022-08-19T07:20:34;26.10;96.50
17333;DHT22;8784;50.94667800;7.08448400;2022-08-19T07:23:02;26.20;96.10
17333;DHT22;8784;50.94667800;7.08448400;2022-08-19T07:25:29;26.20;96.00
17333;DHT22;8784;50.94667800;7.08448400;2022-08-19T07:27:56;26.20;95.80
17333;DHT22;8784;50.94667800;7.08448400;2022-08-19T07:30:23;26.30;95.60
17333;DHT22;8784;50.94667800;7.08448400;2022-08-19T07:32:50;26.40;95.40
17333;DHT22;8784;50.94667800;7.08448400;2022-08-19T07:35:19;26.60;95.20
17333;DHT22;8784;50.94667800;7.08448400;2022-08-19T07:37:46;26.70;94.90
17333;DHT22;8784;50.94667800;7.08448400;2022-08-19T07:40:14;26.70;94.90
17333;DHT22;8784;50.94667800;7.08448400;2022-08-19T07:42:41;26.70;94.90
17333;DHT22;8784;50.94667800;7.08448400;2022-08-19T07:45:09;26.80;94.70
17333;DHT22;8784;50.94667800;7.08448400;2022-08-19T07:47:36;27.00;94.60
17333;DHT22;8784;50.94667800;7.08448400;2022-08-19T07:50:05;27.00;94.70
17333;DHT22;8784;50.94667800;7.08448400;2022-08-19T07:52:33;27.20;94.00
17333;DHT22;8784;50.94667800;7.08448400;2022-08-19T07:55:05;27.30;93.80
17333;DHT22;8784;50.94667800;7.08448400;2022-08-19T07:57:32;27.50;93.60
17333;DHT22;8784;50.94667800;7.08448400;2022-08-19T07:59:59;27.60;93.50
17333;DHT22;8784;50.94667800;7.08448400;2022-08-19T08:02:26;27.70;93.20
17333;DHT22;8784;50.94667800;7.08448400;2022-08-19T08:04:53;27.80;92.90
17333;DHT22;8784;50.94667800;7.08448400;2022-08-19T08:07:39;27.90;92.70
17333;DHT22;8784;50.94667800;7.08448400;2022-08-19T08:10:23;27.90;92.70
17333;DHT22;8784;50.94667800;7.08448400;2022-08-19T08:12:51;27.90;92.30
17333;DHT22;8784;50.94667800;7.08448400;2022-08-19T08:15:18;28.00;92.00
17333;DHT22;8784;50.94667800;7.08448400;2022-08-19T08:17:45;28.20;91.90
17333;DHT22;8784;50.94667800;7.08448400;2022-08-19T08:20:14;28.30;91.70
17333;DHT22;8784;50.94667800;7.08448400;2022-08-19T08:22:44;28.20;91.40
17333;DHT22;8784;50.94667800;7.08448400;2022-08-19T08:25:29;28.10;90.90
17333;DHT22;8784;50.94667800;7.08448400;2022-08-19T08:27:57;28.00;90.40
17333;DHT22;8784;50.94667800;7.08448400;2022-08-19T08:30:26;27.90;90.00
17333;DHT22;8784;50.94667800;7.08448400;2022-08-19T08:32:54;27.70;89.80
17333;DHT22;8784;50.94667800;7.08448400;2022-08-19T08:35:22;27.50;88.90
17333;DHT22;8784;50.94667800;7.08448400;2022-08-19T08:37:53;27.30;88.90
17333;DHT22;8784;50.94667800;7.08448400;2022-08-19T08:40:28;27.20;88.60
17333;DHT22;8784;50.94667800;7.08448400;2022-08-19T08:42:58;27.10;88.10
17333;DHT22;8784;50.94667800;7.08448400;2022-08-19T08:45:30;27.10;88.40
17333;DHT22;8784;50.94667800;7.08448400;2022-08-19T08:48:03;27.20;88.00
17333;DHT22;8784;50.94667800;7.08448400;2022-08-19T08:50:35;27.40;87.50
17333;DHT22;8784;50.94667800;7.08448400;2022-08-19T08:53:06;27.70;87.70
17333;DHT22;8784;50.94667800;7.08448400;2022-08-19T08:55:35;27.90;87.30
17333;DHT22;8784;50.94667800;7.08448400;2022-08-19T08:58:05;28.20;86.40
17333;DHT22;8784;50.94667800;7.08448400;2022-08-19T09:00:35;28.50;85.50
17333;DHT22;8784;50.94667800;7.08448400;2022-08-19T09:03:07;28.90;85.20
17333;DHT22;8784;50.94667800;7.08448400;2022-08-19T09:05:40;29.30;84.40
17333;DHT22;8784;50.94667800;7.08448400;2022-08-19T09:08:15;29.60;83.40
17333;DHT22;8784;50.94667800;7.08448400;2022-08-19T09:10:48;29.90;81.30
17333;DHT22;8784;50.94667800;7.08448400;2022-08-19T09:13:23;30.20;80.30
17333;DHT22;8784;50.94667800;7.08448400;2022-08-19T09:15:56;30.30;79.00
17333;DHT22;8784;50.94667800;7.08448400;2022-08-19T09:18:29;30.20;78.60
17333;DHT22;8784;50.94667800;7.08448400;2022-08-19T09:21:05;30.30;78.40
17333;DHT22;8784;50.94667800;7.08448400;2022-08-19T09:23:34;30.10;78.50
17333;DHT22;8784;50.94667800;7.08448400;2022-08-19T09:26:05;30.00;79.20
17333;DHT22;8784;50.94667800;7.08448400;2022-08-19T09:28:33;30.10;79.00
17333;DHT22;8784;50.94667800;7.08448400;2022-08-19T09:31:00;30.50;78.90
17333;DHT22;8784;50.94667800;7.08448400;2022-08-19T09:33:27;30.70;78.80
17333;DHT22;8784;50.94667800;7.08448400;2022-08-19T09:36:03;30.80;78.50
17333;DHT22;8784;50.94667800;7.08448400;2022-08-19T09:38:30;31.10;77.80
17333;DHT22;8784;50.94667800;7.08448400;2022-08-19T09:41:03;31.30;77.40
17333;DHT22;8784;50.94667800;7.08448400;2022-08-19T09:43:31;31.40;76.30
17333;DHT22;8784;50.94667800;7.08448400;2022-08-19T09:45:59;31.60;75.40
17333;DHT22;8784;50.94667800;7.08448400;2022-08-19T09:48:26;31.70;74.70
17333;DHT22;8784;50.94667800;7.08448400;2022-08-19T09:50:54;31.60;73.80
17333;DHT22;8784;50.94667800;7.08448400;2022-08-19T09:53:21;31.70;73.50
17333;DHT22;8784;50.94667800;7.08448400;2022-08-19T09:55:49;31.50;73.40
17333;DHT22;8784;50.94667800;7.08448400;2022-08-19T09:58:17;31.40;73.00
17333;DHT22;8784;50.94667800;7.08448400;2022-08-19T10:00:44;31.30;72.80
17333;DHT22;8784;50.94667800;7.08448400;2022-08-19T10:03:12;31.40;72.40
17333;DHT22;8784;50.94667800;7.08448400;2022-08-19T10:05:39;31.80;72.80
17333;DHT22;8784;50.94667800;7.08448400;2022-08-19T10:08:17;32.00;71.10
17333;DHT22;8784;50.94667800;7.08448400;2022-08-19T10:10:45;32.10;70.60
17333;DHT22;8784;50.94667800;7.08448400;2022-08-19T10:13:14;32.30;70.50
17333;DHT22;8784;50.94667800;7.08448400;2022-08-19T10:15:42;32.70;69.50
17333;DHT22;8784;50.94667800;7.08448400;2022-08-19T10:18:10;33.00;68.40
17333;DHT22;8784;50.94667800;7.08448400;2022-08-19T10:20:37;33.20;68.00
17333;DHT22;8784;50.94667800;7.08448400;2022-08-19T10:23:04;33.40;67.80
17333;DHT22;8784;50.94667800;7.08448400;2022-08-19T10:25:32;33.40;66.80
17333;DHT22;8784;50.94667800;7.08448400;2022-08-19T10:28:00;33.60;66.00
17333;DHT22;8784;50.94667800;7.08448400;2022-08-19T10:30:27;33.80;65.40
17333;DHT22;8784;50.94667800;7.08448400;2022-08-19T10:32:56;34.00;65.20
17333;DHT22;8784;50.94667800;7.08448400;2022-08-19T10:35:22;34.10;64.80
17333;DHT22;8784;50.94667800;7.08448400;2022-08-19T10:37:52;34.00;64.20
17333;DHT22;8784;50.94667800;7.08448400;2022-08-19T10:40:19;33.80;64.50
17333;DHT22;8784;50.94667800;7.08448400;2022-08-19T10:42:46;33.80;63.40
17333;DHT22;8784;50.94667800;7.08448400;2022-08-19T10:45:13;33.80;62.70
17333;DHT22;8784;50.94667800;7.08448400;2022-08-19T10:47:40;33.90;62.60
17333;DHT22;8784;50.94667800;7.08448400;2022-08-19T10:50:09;33.70;62.80
17333;DHT22;8784;50.94667800;7.08448400;2022-08-19T10:52:54;33.80;62.60
17333;DHT22;8784;50.94667800;7.08448400;2022-08-19T10:55:22;33.80;62.00
17333;DHT22;8784;50.94667800;7.08448400;2022-08-19T10:58:12;33.80;62.10
17333;DHT22;8784;50.94667800;7.08448400;2022-08-19T11:00:39;33.70;62.40
17333;DHT22;8784;50.94667800;7.08448400;2022-08-19T11:03:07;33.50;62.60
17333;DHT22;8784;50.94667800;7.08448400;2022-08-19T11:05:36;33.20;62.20
17333;DHT22;8784;50.94667800;7.08448400;2022-08-19T11:08:04;32.90;62.70
17333;DHT22;8784;50.94667800;7.08448400;2022-08-19T11:10:32;32.80;62.60
17333;DHT22;8784;50.94667800;7.08448400;2022-08-19T11:12:59;32.70;62.50
17333;DHT22;8784;50.94667800;7.08448400;2022-08-19T11:15:26;32.70;61.90
17333;DHT22;8784;50.94667800;7.08448400;2022-08-19T11:17:54;32.70;61.90
17333;DHT22;8784;50.94667800;7.08448400;2022-08-19T11:20:21;32.50;62.00
17333;DHT22;8784;50.94667800;7.08448400;2022-08-19T11:22:51;32.20;62.00
17333;DHT22;8784;50.94667800;7.08448400;2022-08-19T11:25:19;31.80;62.40
17333;DHT22;8784;50.94667800;7.08448400;2022-08-19T11:27:47;31.40;63.20
17333;DHT22;8784;50.94667800;7.08448400;2022-08-19T11:30:16;31.10;62.70
17333;DHT22;8784;50.94667800;7.08448400;2022-08-19T11:32:43;30.80;62.80
17333;DHT22;8784;50.94667800;7.08448400;2022-08-19T11:35:10;30.50;63.20
17333;DHT22;8784;50.94667800;7.08448400;2022-08-19T11:37:37;30.30;63.20
17333;DHT22;8784;50.94667800;7.08448400;2022-08-19T11:40:07;30.30;63.20
17333;DHT22;8784;50.94667800;7.08448400;2022-08-19T11:42:34;30.20;63.10
17333;DHT22;8784;50.94667800;7.08448400;2022-08-19T11:45:18;30.30;63.50
17333;DHT22;8784;50.94667800;7.08448400;2022-08-19T11:47:45;30.30;63.80
17333;DHT22;8784;50.94667800;7.08448400;2022-08-19T11:50:13;30.30;63.70
17333;DHT22;8784;50.94667800;7.08448400;2022-08-19T11:52:40;30.40;63.40
17333;DHT22;8784;50.94667800;7.08448400;2022-08-19T11:55:10;30.50;63.10
17333;DHT22;8784;50.94667800;7.08448400;2022-08-19T11:57:37;30.60;62.80
17333;DHT22;8784;50.94667800;7.08448400;2022-08-19T12:00:05;30.70;62.80
17333;DHT22;8784;50.94667800;7.08448400;2022-08-19T12:02:32;30.70;62.60
17333;DHT22;8784;50.94667800;7.08448400;2022-08-19T12:05:00;30.70;62.60
17333;DHT22;8784;50.94667800;7.08448400;2022-08-19T12:07:28;30.80;62.50
17333;DHT22;8784;50.94667800;7.08448400;2022-08-19T12:09:57;30.80;62.10
17333;DHT22;8784;50.94667800;7.08448400;2022-08-19T12:12:25;30.80;61.80
17333;DHT22;8784;50.94667800;7.08448400;2022-08-19T12:14:52;30.90;61.80
17333;DHT22;8784;50.94667800;7.08448400;2022-08-19T12:17:22;31.00;61.50
17333;DHT22;8784;50.94667800;7.08448400;2022-08-19T12:19:49;31.00;60.70
17333;DHT22;8784;50.94667800;7.08448400;2022-08-19T12:22:16;30.90;60.60
17333;DHT22;8784;50.94667800;7.08448400;2022-08-19T12:24:44;30.80;60.60
17333;DHT22;8784;50.94667800;7.08448400;2022-08-19T12:27:11;30.80;60.80
17333;DHT22;8784;50.94667800;7.08448400;2022-08-19T12:29:39;30.80;60.40
17333;DHT22;8784;50.94667800;7.08448400;2022-08-19T12:32:07;30.80;60.70
17333;DHT22;8784;50.94667800;7.08448400;2022-08-19T12:34:34;30.80;60.60
17333;DHT22;8784;50.94667800;7.08448400;2022-08-19T12:37:04;30.80;60.80
17333;DHT22;8784;50.94667800;7.08448400;2022-08-19T12:39:35;30.80;60.50
17333;DHT22;8784;50.94667800;7.08448400;2022-08-19T12:42:02;30.60;60.40
17333;DHT22;8784;50.94667800;7.08448400;2022-08-19T12:44:29;30.40;60.60
17333;DHT22;8784;50.94667800;7.08448400;2022-08-19T12:46:59;30.40;60.40
17333;DHT22;8784;50.94667800;7.08448400;2022-08-19T12:49:27;30.30;60.40
17333;DHT22;8784;50.94667800;7.08448400;2022-08-19T12:51:56;30.20;60.30
17333;DHT22;8784;50.94667800;7.08448400;2022-08-19T12:54:23;30.30;60.20
17333;DHT22;8784;50.94667800;7.08448400;2022-08-19T12:56:50;30.30;60.20
17333;DHT22;8784;50.94667800;7.08448400;2022-08-19T12:59:17;30.20;60.00
17333;DHT22;8784;50.94667800;7.08448400;2022-08-19T13:01:45;30.10;60.60
17333;DHT22;8784;50.94667800;7.08448400;2022-08-19T13:04:13;30.00;59.70
17333;DHT22;8784;50.94667800;7.08448400;2022-08-19T13:06:40;30.00;59.80
17333;DHT22;8784;50.94667800;7.08448400;2022-08-19T13:09:08;30.00;59.80
17333;DHT22;8784;50.94667800;7.08448400;2022-08-19T13:11:36;30.00;59.90
17333;DHT22;8784;50.94667800;7.08448400;2022-08-19T13:14:04;30.00;60.00
17333;DHT22;8784;50.94667800;7.08448400;2022-08-19T13:16:31;30.10;60.10
17333;DHT22;8784;50.94667800;7.08448400;2022-08-19T13:18:59;30.20;60.00
17333;DHT22;8784;50.94667800;7.08448400;2022-08-19T13:21:29;30.30;60.10
17333;DHT22;8784;50.94667800;7.08448400;2022-08-19T13:23:57;30.30;60.30
17333;DHT22;8784;50.94667800;7.08448400;2022-08-19T13:26:24;30.40;60.00
17333;DHT22;8784;50.94667800;7.08448400;2022-08-19T13:28:51;30.40;60.00
17333;DHT22;8784;50.94667800;7.08448400;2022-08-19T13:31:38;30.40;60.00
17333;DHT22;8784;50.94667800;7.08448400;2022-08-19T13:34:27;30.40;59.70
17333;DHT22;8784;50.94667800;7.08448400;2022-08-19T13:36:56;30.40;59.60
17333;DHT22;8784;50.94667800;7.08448400;2022-08-19T13:39:23;30.40;59.40
17333;DHT22;8784;50.94667800;7.08448400;2022-08-19T13:41:50;30.40;59.30
17333;DHT22;8784;50.94667800;7.08448400;2022-08-19T13:44:18;30.30;59.40